sensor_id;sensor_type;location;lat;lon;timestamp;temperature;humidity
75824;DHT22;64457;51.976;9.834;2023-07-31T00:02:09;21.10;96.10
75824;DHT22;64457;51.976;9.834;2023-07-31T00:04:36;21.30;95.90
75824;DHT22;64457;51.976;9.834;2023-07-31T00:07:16;21.20;96.10
75824;DHT22;64457;51.976;9.834;2023-07-31T00:09:44;21.00;96.60
75824;DHT22;64457;51.976;9.834;2023-07-31T00:12:11;21.00;96.10
75824;DHT22;64457;51.976;9.834;2023-07-31T00:14:40;21.00;96.20
75824;DHT22;64457;51.976;9.834;2023-07-31T00:17:08;21.20;96.70
75824;DHT22;64457;51.976;9.834;2023-07-31T00:19:38;21.20;96.50
75824;DHT22;64457;51.976;9.834;2023-07-31T00:22:05;20.80;97.00
75824;DHT22;64457;51.976;9.834;2023-07-31T00:24:33;20.90;97.00
75824;DHT22;64457;51.976;9.834;2023-07-31T00:27:00;20.90;97.40
75824;DHT22;64457;51.976;9.834;2023-07-31T00:29:27;20.90;97.30
75824;DHT22;64457;51.976;9.834;2023-07-31T00:31:56;20.90;97.50
75824;DHT22;64457;51.976;9.834;2023-07-31T00:34:24;20.90;97.90
75824;DHT22;64457;51.976;9.834;2023-07-31T00:36:51;20.70;98.10
75824;DHT22;64457;51.976;9.834;2023-07-31T00:39:19;20.80;98.30
75824;DHT22;64457;51.976;9.834;2023-07-31T00:41:48;21.00;98.30
75824;DHT22;64457;51.976;9.834;2023-07-31T00:44:19;21.10;98.50
75824;DHT22;64457;51.976;9.834;2023-07-31T00:46:49;21.20;98.60
75824;DHT22;64457;51.976;9.834;2023-07-31T00:49:21;21.10;98.40
75824;DHT22;64457;51.976;9.834;2023-07-31T00:51:49;21.10;98.50
75824;DHT22;64457;51.976;9.834;2023-07-31T00:54:17;21.10;98.60
75824;DHT22;64457;51.976;9.834;2023-07-31T00:56:45;21.10;98.50
75824;DHT22;64457;51.976;9.834;2023-07-31T00:59:14;21.00;98.80
75824;DHT22;64457;51.976;9.834;2023-07-31T01:01:42;20.50;99.40
75824;DHT22;64457;51.976;9.834;2023-07-31T01:04:09;20.50;99.90
75824;DHT22;64457;51.976;9.834;2023-07-31T01:06:47;20.50;99.90
75824;DHT22;64457;51.976;9.834;2023-07-31T01:09:27;20.60;99.90
75824;DHT22;64457;51.976;9.834;2023-07-31T01:11:57;20.40;99.90
75824;DHT22;64457;51.976;9.834;2023-07-31T01:14:28;20.50;99.90
75824;DHT22;64457;51.976;9.834;2023-07-31T01:16:55;20.50;99.90
75824;DHT22;64457;51.976;9.834;2023-07-31T01:19:24;20.30;99.90
75824;DHT22;64457;51.976;9.834;2023-07-31T01:22:11;20.40;99.90
75824;DHT22;64457;51.976;9.834;2023-07-31T01:24:57;20.60;99.90
75824;DHT22;64457;51.976;9.834;2023-07-31T01:27:32;20.70;99.90
75824;DHT22;64457;51.976;9.834;2023-07-31T01:30:08;20.60;99.90
75824;DHT22;64457;51.976;9.834;2023-07-31T01:32:40;20.70;99.90
75824;DHT22;64457;51.976;9.834;2023-07-31T01:35:09;20.50;99.90
75824;DHT22;64457;51.976;9.834;2023-07-31T01:37:37;20.50;99.90
75824;DHT22;64457;51.976;9.834;2023-07-31T01:40:05;20.60;99.90
75824;DHT22;64457;51.976;9.834;2023-07-31T01:42:35;20.30;99.90
75824;DHT22;64457;51.976;9.834;2023-07-31T01:45:03;20.30;99.90
75824;DHT22;64457;51.976;9.834;2023-07-31T01:47:31;20.20;99.90
75824;DHT22;64457;51.976;9.834;2023-07-31T01:49:58;20.10;99.90
75824;DHT22;64457;51.976;9.834;2023-07-31T01:52:25;20.10;99.90
75824;DHT22;64457;51.976;9.834;2023-07-31T01:54:54;20.20;99.90
75824;DHT22;64457;51.976;9.834;2023-07-31T01:57:22;20.20;99.90
75824;DHT22;64457;51.976;9.834;2023-07-31T01:59:53;20.00;99.90
75824;DHT22;64457;51.976;9.834;2023-07-31T02:02:21;20.00;99.90
75824;DHT22;64457;51.976;9.834;2023-07-31T02:04:52;19.80;99.90
75824;DHT22;64457;51.976;9.834;2023-07-31T02:07:19;19.90;99.90
75824;DHT22;64457;51.976;9.834;2023-07-31T02:09:46;19.70;99.90
75824;DHT22;64457;51.976;9.834;2023-07-31T02:12:13;19.70;99.90
75824;DHT22;64457;51.976;9.834;2023-07-31T02:14:41;19.80;99.90
75824;DHT22;64457;51.976;9.834;2023-07-31T02:17:10;19.80;99.90
75824;DHT22;64457;51.976;9.834;2023-07-31T02:19:38;19.80;99.90
75824;DHT22;64457;51.976;9.834;2023-07-31T02:22:08;19.80;99.90
75824;DHT22;64457;51.976;9.834;2023-07-31T02:24:36;19.50;99.90
75824;DHT22;64457;51.976;9.834;2023-07-31T02:27:08;19.70;99.90
75824;DHT22;64457;51.976;9.834;2023-07-31T02:29:45;19.80;99.90
75824;DHT22;64457;51.976;9.834;2023-07-31T02:32:17;19.90;99.90
75824;DHT22;64457;51.976;9.834;2023-07-31T02:34:47;20.00;99.90
75824;DHT22;64457;51.976;9.834;2023-07-31T02:37:14;19.90;99.90
75824;DHT22;64457;51.976;9.834;2023-07-31T02:39:46;20.10;99.90
75824;DHT22;64457;51.976;9.834;2023-07-31T02:42:16;20.10;99.90
75824;DHT22;64457;51.976;9.834;2023-07-31T02:44:44;20.00;99.90
75824;DHT22;64457;51.976;9.834;2023-07-31T02:47:14;20.10;99.90
75824;DHT22;64457;51.976;9.834;2023-07-31T02:49:46;20.30;99.90
75824;DHT22;64457;51.976;9.834;2023-07-31T02:52:14;20.40;99.90
75824;DHT22;64457;51.976;9.834;2023-07-31T02:54:45;20.60;99.90
75824;DHT22;64457;51.976;9.834;2023-07-31T02:57:13;20.50;99.90
75824;DHT22;64457;51.976;9.834;2023-07-31T02:59:42;20.40;99.90
75824;DHT22;64457;51.976;9.834;2023-07-31T03:02:10;20.40;99.90
75824;DHT22;64457;51.976;9.834;2023-07-31T03:04:40;20.30;99.90
75824;DHT22;64457;51.976;9.834;2023-07-31T03:07:08;20.30;99.90
75824;DHT22;64457;51.976;9.834;2023-07-31T03:09:40;20.30;99.90
75824;DHT22;64457;51.976;9.834;2023-07-31T03:12:09;20.40;99.90
75824;DHT22;64457;51.976;9.834;2023-07-31T03:14:37;20.30;99.90
75824;DHT22;64457;51.976;9.834;2023-07-31T03:17:05;20.10;99.90
75824;DHT22;64457;51.976;9.834;2023-07-31T03:19:33;19.80;99.90
75824;DHT22;64457;51.976;9.834;2023-07-31T03:22:02;19.70;99.90
75824;DHT22;64457;51.976;9.834;2023-07-31T03:24:29;19.20;99.90
75824;DHT22;64457;51.976;9.834;2023-07-31T03:26:58;19.30;99.90
75824;DHT22;64457;51.976;9.834;2023-07-31T03:29:25;19.40;99.90
75824;DHT22;64457;51.976;9.834;2023-07-31T03:31:56;19.60;99.90
75824;DHT22;64457;51.976;9.834;2023-07-31T03:34:23;19.60;99.90
75824;DHT22;64457;51.976;9.834;2023-07-31T03:36:55;19.40;99.90
75824;DHT22;64457;51.976;9.834;2023-07-31T03:39:28;19.20;99.90
75824;DHT22;64457;51.976;9.834;2023-07-31T03:41:58;19.30;99.90
75824;DHT22;64457;51.976;9.834;2023-07-31T03:44:27;19.20;99.90
75824;DHT22;64457;51.976;9.834;2023-07-31T03:46:55;19.40;99.90
75824;DHT22;64457;51.976;9.834;2023-07-31T03:49:22;19.50;99.90
75824;DHT22;64457;51.976;9.834;2023-07-31T03:51:54;19.40;99.90
75824;DHT22;64457;51.976;9.834;2023-07-31T03:54:21;19.50;99.90
75824;DHT22;64457;51.976;9.834;2023-07-31T03:56:51;19.50;99.90
75824;DHT22;64457;51.976;9.834;2023-07-31T03:59:19;19.20;99.90
75824;DHT22;64457;51.976;9.834;2023-07-31T04:01:56;19.00;99.90
75824;DHT22;64457;51.976;9.834;2023-07-31T04:04:25;18.90;99.90
75824;DHT22;64457;51.976;9.834;2023-07-31T04:06:53;18.90;99.90
75824;DHT22;64457;51.976;9.834;2023-07-31T04:09:21;19.10;99.90
75824;DHT22;64457;51.976;9.834;2023-07-31T04:11:52;19.20;99.90
75824;DHT22;64457;51.976;9.834;2023-07-31T04:14:19;19.50;99.90
75824;DHT22;64457;51.976;9.834;2023-07-31T04:16:50;19.50;99.90
75824;DHT22;64457;51.976;9.834;2023-07-31T04:19:25;19.50;99.90
75824;DHT22;64457;51.976;9.834;2023-07-31T04:21:59;19.60;99.90
75824;DHT22;64457;51.976;9.834;2023-07-31T04:24:29;19.70;99.90
75824;DHT22;64457;51.976;9.834;2023-07-31T04:27:01;19.50;99.90
75824;DHT22;64457;51.976;9.834;2023-07-31T04:29:31;19.30;99.90
75824;DHT22;64457;51.976;9.834;2023-07-31T04:31:59;19.00;99.90
75824;DHT22;64457;51.976;9.834;2023-07-31T04:34:27;19.00;99.90
75824;DHT22;64457;51.976;9.834;2023-07-31T04:36:54;18.70;99.90
75824;DHT22;64457;51.976;9.834;2023-07-31T04:39:22;18.60;99.90
75824;DHT22;64457;51.976;9.834;2023-07-31T04:41:50;18.90;99.90
75824;DHT22;64457;51.976;9.834;2023-07-31T04:44:19;19.10;99.90
75824;DHT22;64457;51.976;9.834;2023-07-31T04:46:47;19.40;99.90
75824;DHT22;64457;51.976;9.834;2023-07-31T04:49:14;19.50;99.90
75824;DHT22;64457;51.976;9.834;2023-07-31T04:51:42;19.50;99.90
75824;DHT22;64457;51.976;9.834;2023-07-31T04:54:15;19.30;99.90
75824;DHT22;64457;51.976;9.834;2023-07-31T04:56:43;19.40;99.90
75824;DHT22;64457;51.976;9.834;2023-07-31T04:59:10;19.40;99.90
75824;DHT22;64457;51.976;9.834;2023-07-31T05:01:39;19.50;99.90
75824;DHT22;64457;51.976;9.834;2023-07-31T05:04:09;19.70;99.90
75824;DHT22;64457;51.976;9.834;2023-07-31T05:06:39;19.70;99.90
75824;DHT22;64457;51.976;9.834;2023-07-31T05:09:08;19.70;99.90
75824;DHT22;64457;51.976;9.834;2023-07-31T05:11:36;19.50;99.90
75824;DHT22;64457;51.976;9.834;2023-07-31T05:14:03;19.70;99.90
75824;DHT22;64457;51.976;9.834;2023-07-31T05:16:31;19.50;99.90
75824;DHT22;64457;51.976;9.834;2023-07-31T05:19:09;19.60;99.90
75824;DHT22;64457;51.976;9.834;2023-07-31T05:21:37;19.70;99.90
75824;DHT22;64457;51.976;9.834;2023-07-31T05:24:05;19.80;99.90
75824;DHT22;64457;51.976;9.834;2023-07-31T05:26:38;19.60;99.90
75824;DHT22;64457;51.976;9.834;2023-07-31T05:29:06;19.70;99.90
75824;DHT22;64457;51.976;9.834;2023-07-31T05:31:36;19.80;99.90
75824;DHT22;64457;51.976;9.834;2023-07-31T05:34:04;19.90;99.90
75824;DHT22;64457;51.976;9.834;2023-07-31T05:36:34;19.90;99.90
75824;DHT22;64457;51.976;9.834;2023-07-31T05:39:02;19.70;99.90
75824;DHT22;64457;51.976;9.834;2023-07-31T05:41:33;19.70;99.90
75824;DHT22;64457;51.976;9.834;2023-07-31T05:44:00;19.80;99.90
75824;DHT22;64457;51.976;9.834;2023-07-31T05:46:28;19.80;99.90
75824;DHT22;64457;51.976;9.834;2023-07-31T05:48:57;19.90;99.90
75824;DHT22;64457;51.976;9.834;2023-07-31T05:51:26;19.60;99.90
75824;DHT22;64457;51.976;9.834;2023-07-31T05:53:56;19.10;99.90
75824;DHT22;64457;51.976;9.834;2023-07-31T05:56:23;19.30;99.90
75824;DHT22;64457;51.976;9.834;2023-07-31T05:58:53;19.50;99.90
75824;DHT22;64457;51.976;9.834;2023-07-31T06:01:20;19.70;99.90
75824;DHT22;64457;51.976;9.834;2023-07-31T06:03:48;19.30;99.90
75824;DHT22;64457;51.976;9.834;2023-07-31T06:06:16;19.60;99.90
75824;DHT22;64457;51.976;9.834;2023-07-31T06:08:43;19.60;99.90
75824;DHT22;64457;51.976;9.834;2023-07-31T06:11:12;19.50;99.90
75824;DHT22;64457;51.976;9.834;2023-07-31T06:13:40;19.50;99.90
75824;DHT22;64457;51.976;9.834;2023-07-31T06:16:10;19.70;99.90
75824;DHT22;64457;51.976;9.834;2023-07-31T06:18:40;20.00;99.90
75824;DHT22;64457;51.976;9.834;2023-07-31T06:21:09;19.90;99.90
75824;DHT22;64457;51.976;9.834;2023-07-31T06:23:37;19.80;99.90
75824;DHT22;64457;51.976;9.834;2023-07-31T06:26:05;19.70;99.90
75824;DHT22;64457;51.976;9.834;2023-07-31T06:28:42;19.60;99.90
75824;DHT22;64457;51.976;9.834;2023-07-31T06:31:10;19.60;99.90
75824;DHT22;64457;51.976;9.834;2023-07-31T06:33:40;19.90;99.90
75824;DHT22;64457;51.976;9.834;2023-07-31T06:36:07;20.00;99.90
75824;DHT22;64457;51.976;9.834;2023-07-31T06:38:45;20.20;99.90
75824;DHT22;64457;51.976;9.834;2023-07-31T06:41:34;20.30;99.90
75824;DHT22;64457;51.976;9.834;2023-07-31T06:44:14;20.30;99.90
75824;DHT22;64457;51.976;9.834;2023-07-31T06:46:50;20.50;99.90
75824;DHT22;64457;51.976;9.834;2023-07-31T06:49:44;20.50;99.90
75824;DHT22;64457;51.976;9.834;2023-07-31T06:52:15;20.50;99.90
75824;DHT22;64457;51.976;9.834;2023-07-31T06:55:00;20.60;99.90
75824;DHT22;64457;51.976;9.834;2023-07-31T06:57:29;20.80;99.90
75824;DHT22;64457;51.976;9.834;2023-07-31T07:00:02;20.80;99.90
75824;DHT22;64457;51.976;9.834;2023-07-31T07:02:52;20.80;99.90
75824;DHT22;64457;51.976;9.834;2023-07-31T07:05:21;20.80;99.90
75824;DHT22;64457;51.976;9.834;2023-07-31T07:07:55;20.90;99.90
75824;DHT22;64457;51.976;9.834;2023-07-31T07:10:23;20.80;99.90
75824;DHT22;64457;51.976;9.834;2023-07-31T07:12:50;20.30;99.90
75824;DHT22;64457;51.976;9.834;2023-07-31T07:15:19;20.30;99.90
75824;DHT22;64457;51.976;9.834;2023-07-31T07:17:49;20.80;99.90
75824;DHT22;64457;51.976;9.834;2023-07-31T07:20:17;21.60;99.90
75824;DHT22;64457;51.976;9.834;2023-07-31T07:22:45;22.60;99.50
75824;DHT22;64457;51.976;9.834;2023-07-31T07:25:15;22.60;98.40
75824;DHT22;64457;51.976;9.834;2023-07-31T07:27:43;22.20;98.50
75824;DHT22;64457;51.976;9.834;2023-07-31T07:30:10;22.20;99.00
75824;DHT22;64457;51.976;9.834;2023-07-31T07:32:41;22.20;98.50
75824;DHT22;64457;51.976;9.834;2023-07-31T07:35:09;21.80;99.30
75824;DHT22;64457;51.976;9.834;2023-07-31T07:37:37;21.40;99.20
75824;DHT22;64457;51.976;9.834;2023-07-31T07:40:05;21.10;99.90
75824;DHT22;64457;51.976;9.834;2023-07-31T07:42:36;21.00;99.90
75824;DHT22;64457;51.976;9.834;2023-07-31T07:45:07;21.00;99.90
75824;DHT22;64457;51.976;9.834;2023-07-31T07:47:35;21.00;99.90
75824;DHT22;64457;51.976;9.834;2023-07-31T07:50:08;21.20;99.90
75824;DHT22;64457;51.976;9.834;2023-07-31T07:52:36;21.20;99.90
75824;DHT22;64457;51.976;9.834;2023-07-31T07:55:04;21.10;99.90
75824;DHT22;64457;51.976;9.834;2023-07-31T07:57:32;21.10;99.90
75824;DHT22;64457;51.976;9.834;2023-07-31T07:59:59;21.00;99.90
75824;DHT22;64457;51.976;9.834;2023-07-31T08:02:26;21.20;99.90
75824;DHT22;64457;51.976;9.834;2023-07-31T08:04:54;21.20;99.90
75824;DHT22;64457;51.976;9.834;2023-07-31T08:07:23;21.30;99.90
75824;DHT22;64457;51.976;9.834;2023-07-31T08:09:51;21.20;99.90
75824;DHT22;64457;51.976;9.834;2023-07-31T08:12:19;21.00;99.90
75824;DHT22;64457;51.976;9.834;2023-07-31T08:14:48;20.90;99.90
75824;DHT22;64457;51.976;9.834;2023-07-31T08:17:15;20.80;99.90
75824;DHT22;64457;51.976;9.834;2023-07-31T08:19:42;20.80;99.90
75824;DHT22;64457;51.976;9.834;2023-07-31T08:22:10;20.90;99.90
75824;DHT22;64457;51.976;9.834;2023-07-31T08:24:39;20.90;99.90
75824;DHT22;64457;51.976;9.834;2023-07-31T08:27:08;21.10;99.90
75824;DHT22;64457;51.976;9.834;2023-07-31T08:29:36;20.50;99.90
75824;DHT22;64457;51.976;9.834;2023-07-31T08:32:04;20.50;99.90
75824;DHT22;64457;51.976;9.834;2023-07-31T08:34:32;20.70;99.90
75824;DHT22;64457;51.976;9.834;2023-07-31T08:37:00;20.90;99.90
75824;DHT22;64457;51.976;9.834;2023-07-31T08:39:29;21.10;99.90
75824;DHT22;64457;51.976;9.834;2023-07-31T08:41:59;21.00;99.90
75824;DHT22;64457;51.976;9.834;2023-07-31T08:44:29;21.00;99.90
75824;DHT22;64457;51.976;9.834;2023-07-31T08:47:22;21.30;99.90
75824;DHT22;64457;51.976;9.834;2023-07-31T08:49:51;21.50;99.90
75824;DHT22;64457;51.976;9.834;2023-07-31T08:52:20;21.80;99.90
75824;DHT22;64457;51.976;9.834;2023-07-31T08:54:47;21.50;99.90
75824;DHT22;64457;51.976;9.834;2023-07-31T08:57:17;21.70;99.90
75824;DHT22;64457;51.976;9.834;2023-07-31T08:59:45;21.90;99.90
75824;DHT22;64457;51.976;9.834;2023-07-31T09:02:17;21.70;99.90
75824;DHT22;64457;51.976;9.834;2023-07-31T09:04:54;21.50;99.90
75824;DHT22;64457;51.976;9.834;2023-07-31T09:07:22;21.40;99.90
75824;DHT22;64457;51.976;9.834;2023-07-31T09:09:49;21.40;99.90
75824;DHT22;64457;51.976;9.834;2023-07-31T09:12:22;21.50;99.90
75824;DHT22;64457;51.976;9.834;2023-07-31T09:14:49;21.60;99.90
75824;DHT22;64457;51.976;9.834;2023-07-31T09:17:28;21.70;99.90
75824;DHT22;64457;51.976;9.834;2023-07-31T09:19:57;21.20;99.90
75824;DHT22;64457;51.976;9.834;2023-07-31T09:22:34;21.10;99.90
75824;DHT22;64457;51.976;9.834;2023-07-31T09:25:14;21.30;99.90
75824;DHT22;64457;51.976;9.834;2023-07-31T09:27:48;21.30;99.90
75824;DHT22;64457;51.976;9.834;2023-07-31T09:30:16;21.40;99.90
75824;DHT22;64457;51.976;9.834;2023-07-31T09:32:45;21.30;99.90
75824;DHT22;64457;51.976;9.834;2023-07-31T09:35:19;21.60;99.90
75824;DHT22;64457;51.976;9.834;2023-07-31T09:37:51;21.90;99.90
75824;DHT22;64457;51.976;9.834;2023-07-31T09:40:28;22.10;99.90
75824;DHT22;64457;51.976;9.834;2023-07-31T09:42:59;22.20;99.90
75824;DHT22;64457;51.976;9.834;2023-07-31T09:45:33;22.10;99.90
75824;DHT22;64457;51.976;9.834;2023-07-31T09:48:02;22.20;99.90
75824;DHT22;64457;51.976;9.834;2023-07-31T09:50:30;22.00;99.90
75824;DHT22;64457;51.976;9.834;2023-07-31T09:52:57;22.20;99.90
75824;DHT22;64457;51.976;9.834;2023-07-31T09:55:25;22.50;99.90
75824;DHT22;64457;51.976;9.834;2023-07-31T09:57:58;22.40;99.90
75824;DHT22;64457;51.976;9.834;2023-07-31T10:00:28;22.20;99.90
75824;DHT22;64457;51.976;9.834;2023-07-31T10:02:59;22.30;99.90
75824;DHT22;64457;51.976;9.834;2023-07-31T10:05:34;22.50;99.90
75824;DHT22;64457;51.976;9.834;2023-07-31T10:08:16;22.50;99.90
75824;DHT22;64457;51.976;9.834;2023-07-31T10:10:48;22.60;99.80
75824;DHT22;64457;51.976;9.834;2023-07-31T10:13:16;22.50;99.80
75824;DHT22;64457;51.976;9.834;2023-07-31T10:15:50;22.40;99.90
75824;DHT22;64457;51.976;9.834;2023-07-31T10:18:18;22.30;99.90
75824;DHT22;64457;51.976;9.834;2023-07-31T10:20:57;22.50;99.90
75824;DHT22;64457;51.976;9.834;2023-07-31T10:23:25;22.70;99.80
75824;DHT22;64457;51.976;9.834;2023-07-31T10:25:59;22.90;99.90
75824;DHT22;64457;51.976;9.834;2023-07-31T10:28:29;23.30;99.10
75824;DHT22;64457;51.976;9.834;2023-07-31T10:30:59;23.40;98.40
75824;DHT22;64457;51.976;9.834;2023-07-31T10:33:29;23.30;98.60
75824;DHT22;64457;51.976;9.834;2023-07-31T10:36:12;23.20;98.70
75824;DHT22;64457;51.976;9.834;2023-07-31T10:38:43;23.10;98.70
75824;DHT22;64457;51.976;9.834;2023-07-31T10:41:12;22.90;97.80
75824;DHT22;64457;51.976;9.834;2023-07-31T10:43:41;23.00;98.30
75824;DHT22;64457;51.976;9.834;2023-07-31T10:46:14;23.20;98.10
75824;DHT22;64457;51.976;9.834;2023-07-31T10:48:42;23.30;98.00
75824;DHT22;64457;51.976;9.834;2023-07-31T10:51:12;23.30;97.30
75824;DHT22;64457;51.976;9.834;2023-07-31T10:53:44;23.60;97.60
75824;DHT22;64457;51.976;9.834;2023-07-31T10:56:11;23.40;97.30
75824;DHT22;64457;51.976;9.834;2023-07-31T10:59:01;23.60;97.40
75824;DHT22;64457;51.976;9.834;2023-07-31T11:01:50;24.00;97.20
75824;DHT22;64457;51.976;9.834;2023-07-31T11:04:26;24.70;96.50
75824;DHT22;64457;51.976;9.834;2023-07-31T11:07:01;24.30;96.40
75824;DHT22;64457;51.976;9.834;2023-07-31T11:09:37;24.40;96.40
75824;DHT22;64457;51.976;9.834;2023-07-31T11:12:09;24.20;96.60
75824;DHT22;64457;51.976;9.834;2023-07-31T11:14:39;24.10;96.50
75824;DHT22;64457;51.976;9.834;2023-07-31T11:17:11;24.20;97.20
75824;DHT22;64457;51.976;9.834;2023-07-31T11:19:39;24.20;96.90
75824;DHT22;64457;51.976;9.834;2023-07-31T11:22:07;23.60;97.00
75824;DHT22;64457;51.976;9.834;2023-07-31T11:24:44;23.50;98.00
75824;DHT22;64457;51.976;9.834;2023-07-31T11:27:12;23.70;97.90
75824;DHT22;64457;51.976;9.834;2023-07-31T11:29:44;23.80;97.60
75824;DHT22;64457;51.976;9.834;2023-07-31T11:32:18;23.40;98.20
75824;DHT22;64457;51.976;9.834;2023-07-31T11:34:55;23.40;99.00
75824;DHT22;64457;51.976;9.834;2023-07-31T11:37:23;23.60;98.50
75824;DHT22;64457;51.976;9.834;2023-07-31T11:40:04;24.00;98.80
75824;DHT22;64457;51.976;9.834;2023-07-31T11:42:40;24.00;98.00
75824;DHT22;64457;51.976;9.834;2023-07-31T11:45:12;23.90;98.20
75824;DHT22;64457;51.976;9.834;2023-07-31T11:47:39;23.90;98.80
75824;DHT22;64457;51.976;9.834;2023-07-31T11:50:11;24.00;99.00
75824;DHT22;64457;51.976;9.834;2023-07-31T11:52:44;24.20;98.10
75824;DHT22;64457;51.976;9.834;2023-07-31T11:55:22;24.00;97.80
75824;DHT22;64457;51.976;9.834;2023-07-31T11:57:51;23.70;98.10
75824;DHT22;64457;51.976;9.834;2023-07-31T12:00:39;23.50;98.40
75824;DHT22;64457;51.976;9.834;2023-07-31T12:03:15;23.30;98.70
75824;DHT22;64457;51.976;9.834;2023-07-31T12:05:57;23.20;99.00
75824;DHT22;64457;51.976;9.834;2023-07-31T12:08:25;23.30;98.90
75824;DHT22;64457;51.976;9.834;2023-07-31T12:11:01;23.40;98.70
75824;DHT22;64457;51.976;9.834;2023-07-31T12:13:36;23.50;98.60
75824;DHT22;64457;51.976;9.834;2023-07-31T12:16:08;23.40;98.70
75824;DHT22;64457;51.976;9.834;2023-07-31T12:18:38;23.20;99.00
75824;DHT22;64457;51.976;9.834;2023-07-31T12:21:10;23.20;99.40
75824;DHT22;64457;51.976;9.834;2023-07-31T12:23:51;23.40;99.40
75824;DHT22;64457;51.976;9.834;2023-07-31T12:26:20;23.50;99.70
75824;DHT22;64457;51.976;9.834;2023-07-31T12:28:50;23.90;99.40
75824;DHT22;64457;51.976;9.834;2023-07-31T12:31:35;24.00;99.40
75824;DHT22;64457;51.976;9.834;2023-07-31T12:34:03;24.20;99.30
75824;DHT22;64457;51.976;9.834;2023-07-31T12:36:42;24.10;98.90
75824;DHT22;64457;51.976;9.834;2023-07-31T12:39:10;23.60;99.50
75824;DHT22;64457;51.976;9.834;2023-07-31T12:41:47;23.30;99.90
75824;DHT22;64457;51.976;9.834;2023-07-31T12:44:28;23.30;99.90
75824;DHT22;64457;51.976;9.834;2023-07-31T12:46:57;23.30;99.90
75824;DHT22;64457;51.976;9.834;2023-07-31T12:49:29;23.30;99.90
75824;DHT22;64457;51.976;9.834;2023-07-31T12:52:05;23.30;99.90
75824;DHT22;64457;51.976;9.834;2023-07-31T12:54:33;23.10;99.90
75824;DHT22;64457;51.976;9.834;2023-07-31T12:57:01;22.80;99.90
75824;DHT22;64457;51.976;9.834;2023-07-31T12:59:31;22.60;99.90
75824;DHT22;64457;51.976;9.834;2023-07-31T13:02:05;22.60;99.90
75824;DHT22;64457;51.976;9.834;2023-07-31T13:04:37;22.60;99.90
75824;DHT22;64457;51.976;9.834;2023-07-31T13:07:05;22.30;99.90
75824;DHT22;64457;51.976;9.834;2023-07-31T13:09:36;22.00;99.90
75824;DHT22;64457;51.976;9.834;2023-07-31T13:12:07;22.20;99.90
75824;DHT22;64457;51.976;9.834;2023-07-31T13:14:35;22.40;99.90
75824;DHT22;64457;51.976;9.834;2023-07-31T13:17:09;22.70;99.90
75824;DHT22;64457;51.976;9.834;2023-07-31T13:19:36;22.50;99.90
75824;DHT22;64457;51.976;9.834;2023-07-31T13:22:04;22.60;99.90
75824;DHT22;64457;51.976;9.834;2023-07-31T13:24:32;22.90;99.90
75824;DHT22;64457;51.976;9.834;2023-07-31T13:26:59;23.20;99.90
75824;DHT22;64457;51.976;9.834;2023-07-31T13:29:27;23.00;99.90
75824;DHT22;64457;51.976;9.834;2023-07-31T13:32:00;22.80;99.90
75824;DHT22;64457;51.976;9.834;2023-07-31T13:34:29;22.70;99.90
75824;DHT22;64457;51.976;9.834;2023-07-31T13:36:56;22.80;99.90
75824;DHT22;64457;51.976;9.834;2023-07-31T13:39:24;22.80;99.90
75824;DHT22;64457;51.976;9.834;2023-07-31T13:41:52;22.50;99.90
75824;DHT22;64457;51.976;9.834;2023-07-31T13:44:19;22.30;99.90
75824;DHT22;64457;51.976;9.834;2023-07-31T13:46:48;22.50;99.90
75824;DHT22;64457;51.976;9.834;2023-07-31T13:49:19;22.60;99.90
75824;DHT22;64457;51.976;9.834;2023-07-31T13:51:52;23.00;99.90
75824;DHT22;64457;51.976;9.834;2023-07-31T13:54:24;23.10;99.90
75824;DHT22;64457;51.976;9.834;2023-07-31T13:56:57;22.60;99.90
75824;DHT22;64457;51.976;9.834;2023-07-31T13:59:24;22.70;99.90
75824;DHT22;64457;51.976;9.834;2023-07-31T14:01:55;23.00;99.90
75824;DHT22;64457;51.976;9.834;2023-07-31T14:04:24;23.00;99.90
75824;DHT22;64457;51.976;9.834;2023-07-31T14:06:55;23.20;99.90
75824;DHT22;64457;51.976;9.834;2023-07-31T14:09:30;23.60;99.90
75824;DHT22;64457;51.976;9.834;2023-07-31T14:12:04;23.80;99.50
75824;DHT22;64457;51.976;9.834;2023-07-31T14:14:37;24.10;99.10
75824;DHT22;64457;51.976;9.834;2023-07-31T14:17:08;23.90;99.60
75824;DHT22;64457;51.976;9.834;2023-07-31T14:19:47;24.00;99.60
75824;DHT22;64457;51.976;9.834;2023-07-31T14:22:32;23.90;99.90
75824;DHT22;64457;51.976;9.834;2023-07-31T14:25:02;23.90;99.90
75824;DHT22;64457;51.976;9.834;2023-07-31T14:27:36;23.70;99.90
75824;DHT22;64457;51.976;9.834;2023-07-31T14:30:08;23.30;99.90
75824;DHT22;64457;51.976;9.834;2023-07-31T14:32:41;23.10;99.90
75824;DHT22;64457;51.976;9.834;2023-07-31T14:35:09;23.00;99.90
75824;DHT22;64457;51.976;9.834;2023-07-31T14:37:44;23.10;99.90
75824;DHT22;64457;51.976;9.834;2023-07-31T14:40:13;22.90;99.90
75824;DHT22;64457;51.976;9.834;2023-07-31T14:42:43;23.00;99.90
75824;DHT22;64457;51.976;9.834;2023-07-31T14:45:13;23.20;99.90
75824;DHT22;64457;51.976;9.834;2023-07-31T14:47:43;23.60;99.90
75824;DHT22;64457;51.976;9.834;2023-07-31T14:50:20;23.70;99.90
75824;DHT22;64457;51.976;9.834;2023-07-31T14:52:55;23.70;99.90
75824;DHT22;64457;51.976;9.834;2023-07-31T14:55:26;23.80;99.90
75824;DHT22;64457;51.976;9.834;2023-07-31T14:58:02;23.70;99.90
75824;DHT22;64457;51.976;9.834;2023-07-31T15:00:35;23.50;99.90
75824;DHT22;64457;51.976;9.834;2023-07-31T15:03:03;23.50;99.90
75824;DHT22;64457;51.976;9.834;2023-07-31T15:05:31;23.60;99.90
75824;DHT22;64457;51.976;9.834;2023-07-31T15:08:00;23.80;99.90
75824;DHT22;64457;51.976;9.834;2023-07-31T15:10:30;23.80;99.70
75824;DHT22;64457;51.976;9.834;2023-07-31T15:13:00;23.70;99.70
75824;DHT22;64457;51.976;9.834;2023-07-31T15:15:28;23.60;99.80
75824;DHT22;64457;51.976;9.834;2023-07-31T15:17:57;23.30;99.90
75824;DHT22;64457;51.976;9.834;2023-07-31T15:20:25;23.10;99.90
75824;DHT22;64457;51.976;9.834;2023-07-31T15:22:52;23.20;99.90
75824;DHT22;64457;51.976;9.834;2023-07-31T15:25:21;23.20;99.90
75824;DHT22;64457;51.976;9.834;2023-07-31T15:27:49;23.40;99.90
75824;DHT22;64457;51.976;9.834;2023-07-31T15:30:16;23.00;99.90
75824;DHT22;64457;51.976;9.834;2023-07-31T15:32:44;23.10;99.90
75824;DHT22;64457;51.976;9.834;2023-07-31T15:35:14;23.20;99.90
75824;DHT22;64457;51.976;9.834;2023-07-31T15:37:45;23.30;99.90
75824;DHT22;64457;51.976;9.834;2023-07-31T15:40:15;23.60;99.40
75824;DHT22;64457;51.976;9.834;2023-07-31T15:42:46;23.30;99.80
75824;DHT22;64457;51.976;9.834;2023-07-31T15:45:15;23.30;99.90
75824;DHT22;64457;51.976;9.834;2023-07-31T15:47:52;23.50;99.80
75824;DHT22;64457;51.976;9.834;2023-07-31T15:50:22;23.90;99.30
75824;DHT22;64457;51.976;9.834;2023-07-31T15:52:55;24.00;98.60